Terminal Aerodrome Forecast
Issued by NWS Jackson, MS

Home | Current Version | Previous Version | Text Only | Print | Product List | Glossary On
Versions: 1 2 3 4 5 6 7 8 9 10 11 12 13 14 15 16 17 18
000
FTUS44 KMEG 190000 AAB
TAFTUP
TAF AMD
KTUP 190042Z 1901/1924 21006KT P6SM VCTS SCT035CB BKN250
     FM190100 24008KT 3SM TSRA BKN030CB OVC200
     FM190300 06003KT P6SM SCT020 BKN200
     FM190700 07002KT 4SM BR FEW005
      TEMPO 1908/1912 3SM BR BCFG SCT004
     FM191500 12005KT P6SM FEW040=

USA.gov is the U.S. government's official web portal to all federal, state and local government web resources and services.